createdAt,value
2019-04-30T00:01:22.285Z,7.70
2019-04-30T00:03:59.350Z,11.47
2019-04-30T00:06:34.087Z,4.20
2019-04-30T00:08:57.993Z,4.70
2019-04-30T00:11:27.011Z,5.08
2019-04-30T00:13:58.779Z,5.28
2019-04-30T00:16:31.029Z,4.78
2019-04-30T00:19:00.716Z,4.30
2019-04-30T00:21:28.589Z,5.10
2019-04-30T00:24:00.948Z,6.12
2019-04-30T00:26:28.530Z,4.35
2019-04-30T00:28:57.826Z,3.95
2019-04-30T00:31:27.558Z,3.70
2019-04-30T00:34:01.138Z,3.85
2019-04-30T00:36:34.071Z,3.97
2019-04-30T00:38:58.995Z,3.72
2019-04-30T00:41:30.190Z,3.80
2019-04-30T00:43:58.905Z,3.20
2019-04-30T00:46:29.435Z,3.85
2019-04-30T00:49:08.849Z,3.50
2019-04-30T00:51:29.521Z,3.60
2019-04-30T00:53:58.591Z,3.33
2019-04-30T00:56:28.351Z,3.52
2019-04-30T00:59:02.097Z,3.20
2019-04-30T01:01:48.127Z,3.45
2019-04-30T01:04:24.556Z,3.60
2019-04-30T01:06:55.905Z,3.40
2019-04-30T01:09:25.657Z,3.60
2019-04-30T01:11:55.324Z,3.50
2019-04-30T01:14:28.317Z,3.47
2019-04-30T01:16:55.411Z,3.80
2019-04-30T01:19:30.193Z,3.90
2019-04-30T01:21:55.343Z,3.77
2019-04-30T01:24:28.370Z,3.72
2019-04-30T01:26:55.258Z,3.98
2019-04-30T01:29:24.374Z,3.50
2019-04-30T01:31:53.689Z,3.60
2019-04-30T01:34:23.037Z,3.55
2019-04-30T01:36:52.390Z,3.37
2019-04-30T01:39:23.739Z,3.42
2019-04-30T01:41:52.853Z,3.90
2019-04-30T01:44:22.155Z,3.55
2019-04-30T01:46:51.825Z,4.08
2019-04-30T01:49:25.755Z,3.50
2019-04-30T01:51:52.881Z,3.92
2019-04-30T01:54:24.375Z,3.70
2019-04-30T01:57:31.210Z,3.60
2019-04-30T02:00:25.300Z,3.52
2019-04-30T02:02:54.650Z,3.58
2019-04-30T02:05:23.924Z,4.00
2019-04-30T02:07:53.244Z,3.90
2019-04-30T02:10:22.521Z,3.40
2019-04-30T02:12:51.812Z,3.70
2019-04-30T02:15:21.113Z,3.80
2019-04-30T02:17:50.577Z,3.65
2019-04-30T02:20:20.073Z,3.60
2019-04-30T02:22:49.471Z,3.83
2019-04-30T02:25:19.512Z,3.58
2019-04-30T02:27:49.178Z,3.60
2019-04-30T02:30:20.924Z,3.67
2019-04-30T02:32:52.622Z,3.55
2019-04-30T02:35:45.740Z,3.67
2019-04-30T02:38:20.336Z,3.62
2019-04-30T02:40:50.879Z,3.75
2019-04-30T02:43:22.749Z,3.33
2019-04-30T02:45:54.789Z,3.83
2019-04-30T02:48:25.850Z,3.70
2019-04-30T02:50:57.161Z,3.60
2019-04-30T02:54:20.203Z,3.70
2019-04-30T02:56:54.262Z,3.75
2019-04-30T02:59:23.629Z,3.58
2019-04-30T03:01:52.916Z,3.90
2019-04-30T03:04:22.319Z,3.55
2019-04-30T03:06:51.606Z,3.37
2019-04-30T03:09:20.996Z,3.63
2019-04-30T03:11:50.410Z,3.40
2019-04-30T03:14:20.254Z,3.40
2019-04-30T03:16:56.020Z,3.95
2019-04-30T03:19:31.478Z,3.50
2019-04-30T03:22:10.148Z,2.90
2019-04-30T03:24:42.640Z,3.67
2019-04-30T03:27:10.844Z,3.87
2019-04-30T03:29:40.646Z,3.60
2019-04-30T03:32:13.297Z,3.58
2019-04-30T03:34:42.605Z,3.80
2019-04-30T03:37:12.251Z,3.50
2019-04-30T03:39:41.589Z,3.55
2019-04-30T03:42:10.933Z,3.58
2019-04-30T03:44:40.351Z,3.75
2019-04-30T03:47:11.018Z,3.57
2019-04-30T03:49:40.614Z,3.33
2019-04-30T03:52:13.155Z,3.37
2019-04-30T03:54:41.083Z,3.70
2019-04-30T03:57:10.910Z,3.60
2019-04-30T03:59:40.456Z,3.70
2019-04-30T04:02:34.822Z,3.45
2019-04-30T04:05:13.497Z,3.47
2019-04-30T04:07:59.822Z,3.25
2019-04-30T04:10:50.220Z,3.50
2019-04-30T04:13:19.741Z,3.47
2019-04-30T04:15:49.971Z,3.60
2019-04-30T04:18:20.222Z,3.50
2019-04-30T04:20:51.990Z,3.57
2019-04-30T04:23:20.833Z,3.58
2019-04-30T04:25:50.144Z,3.37
2019-04-30T04:28:20.389Z,3.37
2019-04-30T04:30:50.591Z,3.40
2019-04-30T04:33:20.433Z,3.33
2019-04-30T04:35:50.068Z,3.50
2019-04-30T04:38:20.512Z,3.65
2019-04-30T04:40:50.502Z,3.47
2019-04-30T04:43:20.478Z,3.62
2019-04-30T04:45:50.366Z,3.22
2019-04-30T04:48:23.239Z,3.58
2019-04-30T04:50:51.593Z,3.98
2019-04-30T04:53:21.440Z,3.40
2019-04-30T04:55:51.081Z,3.92
2019-04-30T04:58:21.790Z,3.40
2019-04-30T05:00:51.559Z,3.30
2019-04-30T05:03:46.079Z,3.45
2019-04-30T05:06:15.926Z,3.42
2019-04-30T05:08:45.900Z,3.52
2019-04-30T05:11:15.784Z,3.58
2019-04-30T05:13:45.865Z,3.92
2019-04-30T05:16:15.877Z,3.63
2019-04-30T05:18:46.101Z,4.15
2019-04-30T05:21:18.658Z,3.77
2019-04-30T05:23:49.346Z,3.67
2019-04-30T05:26:22.690Z,3.42
2019-04-30T05:28:52.961Z,3.45
2019-04-30T05:31:23.884Z,3.45
2019-04-30T05:33:56.250Z,3.80
2019-04-30T05:36:25.914Z,3.40
2019-04-30T05:38:55.503Z,3.25
2019-04-30T05:41:25.152Z,3.83
2019-04-30T05:43:55.079Z,3.30
2019-04-30T05:46:24.847Z,3.72
2019-04-30T05:48:54.520Z,3.75
2019-04-30T05:51:24.276Z,3.72
2019-04-30T05:53:54.217Z,3.72
2019-04-30T05:56:24.154Z,3.92
2019-04-30T05:58:53.740Z,3.92
2019-04-30T06:01:24.329Z,3.50
2019-04-30T06:03:54.009Z,3.22
2019-04-30T06:06:23.689Z,3.60
2019-04-30T06:09:30.189Z,3.70
2019-04-30T06:12:11.598Z,3.37
2019-04-30T06:14:51.891Z,3.40
2019-04-30T06:17:21.887Z,3.30
2019-04-30T06:19:51.732Z,3.25
2019-04-30T06:22:22.108Z,3.47
2019-04-30T06:24:52.195Z,3.30
2019-04-30T06:27:22.244Z,3.25
2019-04-30T06:29:52.032Z,3.12
2019-04-30T06:32:21.740Z,3.15
2019-04-30T06:34:51.453Z,3.55
2019-04-30T06:37:22.019Z,3.30
2019-04-30T06:39:51.958Z,2.95
2019-04-30T06:42:21.832Z,3.20
2019-04-30T06:44:51.857Z,2.80
2019-04-30T06:47:32.485Z,3.25
2019-04-30T06:49:53.980Z,3.12
2019-04-30T06:52:23.770Z,3.17
2019-04-30T06:54:53.539Z,2.85
2019-04-30T06:57:23.355Z,2.80
2019-04-30T06:59:53.189Z,2.90
2019-04-30T07:02:22.841Z,2.75
2019-04-30T07:04:52.854Z,2.90
2019-04-30T07:07:35.787Z,2.77
2019-04-30T07:10:03.377Z,3.20
2019-04-30T07:12:55.052Z,3.17
2019-04-30T07:15:24.836Z,2.90
2019-04-30T07:17:54.537Z,2.90
2019-04-30T07:20:25.040Z,2.92
2019-04-30T07:23:00.780Z,3.03
2019-04-30T07:25:26.169Z,3.00
2019-04-30T07:27:56.157Z,2.70
2019-04-30T07:30:25.958Z,3.50
2019-04-30T07:32:55.689Z,2.67
2019-04-30T07:35:25.584Z,2.67
2019-04-30T07:38:03.363Z,2.80
2019-04-30T07:40:29.011Z,2.75
2019-04-30T07:42:59.185Z,2.52
2019-04-30T07:45:32.038Z,2.80
2019-04-30T07:48:00.991Z,2.67
2019-04-30T07:50:31.950Z,2.50
2019-04-30T07:53:06.024Z,2.80
2019-04-30T07:55:33.596Z,3.20
2019-04-30T07:58:03.407Z,2.80
2019-04-30T08:00:33.230Z,2.40
2019-04-30T08:03:12.936Z,2.80
2019-04-30T08:05:44.934Z,2.80
2019-04-30T08:08:21.649Z,2.50
2019-04-30T08:10:46.101Z,2.80
2019-04-30T08:13:16.352Z,2.40
2019-04-30T08:15:46.660Z,3.02
2019-04-30T08:18:18.392Z,2.72
2019-04-30T08:20:49.034Z,2.80
2019-04-30T08:23:33.068Z,2.70
2019-04-30T08:25:50.126Z,2.47
2019-04-30T08:28:19.847Z,2.50
2019-04-30T08:30:49.570Z,2.17
2019-04-30T08:33:19.420Z,2.40
2019-04-30T08:35:49.993Z,2.30
2019-04-30T08:38:19.811Z,2.12
2019-04-30T08:40:56.021Z,2.10
2019-04-30T08:43:21.010Z,2.83
2019-04-30T08:45:50.958Z,2.10
2019-04-30T08:48:20.779Z,2.33
2019-04-30T08:50:50.960Z,2.25
2019-04-30T08:53:29.792Z,2.10
2019-04-30T08:55:52.109Z,2.33
2019-04-30T08:58:22.065Z,2.10
2019-04-30T09:00:51.744Z,2.05
2019-04-30T09:03:21.459Z,2.00
2019-04-30T09:06:22.625Z,2.00
2019-04-30T09:08:55.430Z,2.27
2019-04-30T09:11:32.155Z,2.17
2019-04-30T09:13:58.512Z,2.00
2019-04-30T09:16:29.489Z,2.33
2019-04-30T09:18:59.566Z,2.30
2019-04-30T09:21:30.033Z,2.10
2019-04-30T09:23:59.978Z,1.90
2019-04-30T09:26:29.700Z,2.15
2019-04-30T09:28:59.572Z,2.10
2019-04-30T09:31:29.844Z,2.00
2019-04-30T09:34:00.898Z,2.30
2019-04-30T09:36:30.734Z,2.20
2019-04-30T09:39:01.565Z,2.50
2019-04-30T09:41:31.492Z,2.22
2019-04-30T09:44:01.531Z,2.37
2019-04-30T09:46:31.126Z,2.40
2019-04-30T09:49:00.659Z,2.20
2019-04-30T09:51:31.289Z,2.40
2019-04-30T09:54:03.718Z,2.62
2019-04-30T09:56:32.897Z,2.12
2019-04-30T09:59:02.548Z,2.63
2019-04-30T10:01:33.182Z,2.15
2019-04-30T10:04:03.360Z,2.58
2019-04-30T10:06:39.502Z,3.10
2019-04-30T10:09:12.204Z,2.50
2019-04-30T10:11:59.579Z,2.00
2019-04-30T10:14:28.949Z,2.47
2019-04-30T10:17:13.772Z,2.10
2019-04-30T10:19:43.325Z,2.30
2019-04-30T10:22:13.060Z,2.30
2019-04-30T10:24:42.778Z,2.12
2019-04-30T10:27:13.415Z,2.17
2019-04-30T10:29:43.573Z,2.20
2019-04-30T10:32:13.762Z,2.60
2019-04-30T10:34:43.587Z,2.70
2019-04-30T10:37:13.390Z,2.35
2019-04-30T10:39:43.304Z,2.20
2019-04-30T10:42:12.901Z,2.20
2019-04-30T10:44:42.480Z,2.20
2019-04-30T10:47:12.211Z,2.30
2019-04-30T10:49:41.848Z,2.40
2019-04-30T10:52:11.514Z,2.65
2019-04-30T10:54:41.341Z,2.50
2019-04-30T10:57:10.907Z,2.42
2019-04-30T10:59:40.595Z,2.40
2019-04-30T11:02:10.326Z,2.77
2019-04-30T11:04:40.423Z,2.20
2019-04-30T11:07:10.134Z,2.30
2019-04-30T11:09:39.805Z,2.30
2019-04-30T11:12:09.624Z,2.20
2019-04-30T11:14:58.312Z,2.50
2019-04-30T11:17:29.999Z,2.33
2019-04-30T11:20:00.521Z,2.52
2019-04-30T11:22:30.514Z,2.60
2019-04-30T11:25:02.793Z,2.77
2019-04-30T11:27:32.606Z,2.52
2019-04-30T11:30:04.105Z,2.35
2019-04-30T11:32:34.327Z,2.40
2019-04-30T11:35:04.695Z,2.60
2019-04-30T11:37:34.333Z,2.50
2019-04-30T11:40:04.610Z,2.65
2019-04-30T11:42:34.212Z,2.60
2019-04-30T11:45:04.067Z,2.40
2019-04-30T11:47:35.066Z,2.42
2019-04-30T11:50:06.577Z,2.60
2019-04-30T11:52:36.144Z,2.52
2019-04-30T11:55:09.659Z,2.70
2019-04-30T11:57:39.879Z,3.70
2019-04-30T12:00:12.417Z,2.70
2019-04-30T12:02:42.693Z,3.20
2019-04-30T12:05:15.651Z,6.03
2019-04-30T12:07:56.503Z,2.70
2019-04-30T12:10:36.352Z,2.45
2019-04-30T12:13:09.612Z,2.70
2019-04-30T12:15:39.210Z,2.70
2019-04-30T12:18:09.043Z,4.05
2019-04-30T12:20:38.540Z,5.83
2019-04-30T12:23:11.694Z,2.83
2019-04-30T12:25:41.198Z,3.10
2019-04-30T12:28:09.880Z,2.90
2019-04-30T12:30:39.257Z,6.62
2019-04-30T12:33:09.060Z,2.75
2019-04-30T12:35:38.579Z,2.80
2019-04-30T12:38:08.790Z,2.60
2019-04-30T12:40:38.967Z,2.72
2019-04-30T12:43:08.410Z,2.55
2019-04-30T12:45:39.369Z,2.55
2019-04-30T12:48:13.945Z,2.70
2019-04-30T12:50:52.843Z,9.50
2019-04-30T12:53:27.142Z,3.30
2019-04-30T12:56:03.318Z,18.02
2019-04-30T12:58:32.801Z,2.77
2019-04-30T13:01:02.309Z,3.30
2019-04-30T13:03:31.753Z,3.47
2019-04-30T13:06:01.960Z,2.98
2019-04-30T13:08:32.539Z,4.12
2019-04-30T13:11:02.782Z,2.58
2019-04-30T13:13:33.080Z,2.60
2019-04-30T13:16:02.829Z,2.37
2019-04-30T13:18:32.513Z,3.15
2019-04-30T13:21:01.851Z,6.15
2019-04-30T13:23:31.282Z,2.55
2019-04-30T13:26:01.043Z,4.03
2019-04-30T13:28:32.657Z,2.40
2019-04-30T13:31:01.979Z,2.33
2019-04-30T13:33:39.607Z,2.40
2019-04-30T13:36:09.013Z,5.20
2019-04-30T13:38:51.753Z,2.30
2019-04-30T13:41:29.737Z,2.47
2019-04-30T13:44:01.997Z,2.30
2019-04-30T13:46:31.341Z,2.47
2019-04-30T13:49:00.684Z,2.77
2019-04-30T13:51:30.081Z,2.43
2019-04-30T13:53:59.401Z,2.35
2019-04-30T13:56:28.840Z,2.22
2019-04-30T13:58:58.260Z,2.65
2019-04-30T14:01:29.394Z,2.83
2019-04-30T14:04:08.892Z,2.62
2019-04-30T14:06:43.892Z,2.70
2019-04-30T14:09:20.114Z,2.50
2019-04-30T14:11:49.465Z,2.50
2019-04-30T14:14:20.003Z,2.42
2019-04-30T14:16:49.448Z,2.50
2019-04-30T14:19:19.619Z,2.40
2019-04-30T14:21:49.415Z,2.22
2019-04-30T14:24:19.287Z,2.67
2019-04-30T14:26:49.157Z,2.20
2019-04-30T14:29:18.653Z,2.50
2019-04-30T14:31:48.798Z,2.30
2019-04-30T14:34:30.425Z,2.40
2019-04-30T14:36:59.750Z,2.60
2019-04-30T14:39:29.369Z,2.72
2019-04-30T14:41:59.904Z,2.40
2019-04-30T14:44:31.758Z,2.40
2019-04-30T14:47:24.718Z,2.70
2019-04-30T14:50:05.515Z,2.45
2019-04-30T14:52:40.712Z,2.52
2019-04-30T14:55:22.896Z,2.45
2019-04-30T14:58:06.444Z,2.63
2019-04-30T15:00:54.670Z,2.80
2019-04-30T15:03:24.263Z,2.60
2019-04-30T15:05:53.663Z,2.87
2019-04-30T15:08:23.005Z,2.72
2019-04-30T15:10:52.346Z,2.70
2019-04-30T15:13:21.657Z,2.50
2019-04-30T15:15:50.986Z,2.65
2019-04-30T15:18:20.283Z,3.20
2019-04-30T15:20:49.910Z,3.00
2019-04-30T15:23:56.425Z,2.92
2019-04-30T15:26:24.483Z,2.83
2019-04-30T15:28:49.548Z,2.90
2019-04-30T15:31:18.862Z,2.67
2019-04-30T15:34:02.868Z,2.67
2019-04-30T15:36:30.428Z,2.70
2019-04-30T15:39:14.089Z,2.60
2019-04-30T15:41:43.504Z,2.70
2019-04-30T15:44:12.858Z,2.80
2019-04-30T15:46:42.336Z,2.80
2019-04-30T15:49:11.648Z,2.60
2019-04-30T15:51:40.981Z,2.90
2019-04-30T15:54:10.293Z,4.53
2019-04-30T15:56:42.353Z,5.15
2019-04-30T15:59:16.582Z,2.33
2019-04-30T16:01:49.448Z,5.53
2019-04-30T16:04:22.117Z,4.15
2019-04-30T16:06:51.456Z,11.13
2019-04-30T16:09:28.541Z,6.25
2019-04-30T16:12:20.246Z,2.20
2019-04-30T16:14:49.770Z,6.05
2019-04-30T16:17:21.888Z,3.72
2019-04-30T16:19:51.245Z,3.58
2019-04-30T16:22:21.061Z,2.55
2019-04-30T16:24:50.371Z,2.65
2019-04-30T16:27:19.722Z,3.10
2019-04-30T16:29:49.893Z,2.87
2019-04-30T16:32:20.853Z,2.85
2019-04-30T16:34:50.175Z,3.87
2019-04-30T16:37:20.226Z,3.15
2019-04-30T16:39:49.799Z,4.72
2019-04-30T16:42:19.199Z,2.47
2019-04-30T16:44:48.648Z,6.25
2019-04-30T16:47:19.930Z,3.92
2019-04-30T16:49:49.397Z,3.55
2019-04-30T16:52:19.120Z,3.00
2019-04-30T16:54:49.731Z,2.70
2019-04-30T16:57:19.273Z,2.75
2019-04-30T16:59:49.973Z,4.28
2019-04-30T17:02:21.620Z,4.90
2019-04-30T17:05:19.836Z,4.23
2019-04-30T17:08:06.205Z,2.92
2019-04-30T17:10:51.200Z,3.30
2019-04-30T17:13:33.359Z,4.17
2019-04-30T17:16:11.335Z,2.40
2019-04-30T17:18:41.860Z,2.75
2019-04-30T17:21:11.389Z,3.12
2019-04-30T17:23:40.679Z,3.17
2019-04-30T17:26:09.956Z,7.58
2019-04-30T17:28:39.291Z,3.42
2019-04-30T17:31:09.769Z,3.92
2019-04-30T17:33:39.312Z,3.30
2019-04-30T17:36:11.033Z,5.70
2019-04-30T17:38:39.630Z,3.37
2019-04-30T17:41:08.934Z,5.75
2019-04-30T17:43:39.445Z,4.37
2019-04-30T17:46:09.302Z,3.12
2019-04-30T17:48:39.391Z,3.67
2019-04-30T17:51:09.439Z,4.12
2019-04-30T17:53:58.737Z,3.20
2019-04-30T17:56:28.609Z,3.93
2019-04-30T17:58:58.285Z,3.50
2019-04-30T18:01:27.745Z,4.12
2019-04-30T18:03:58.784Z,3.70
2019-04-30T18:06:28.305Z,3.50
2019-04-30T18:08:58.959Z,3.33
2019-04-30T18:11:29.560Z,3.40
2019-04-30T18:13:59.689Z,3.80
2019-04-30T18:16:29.065Z,3.57
2019-04-30T18:19:03.896Z,4.80
2019-04-30T18:21:40.163Z,3.85
2019-04-30T18:24:20.828Z,3.58
2019-04-30T18:26:54.965Z,3.60
2019-04-30T18:29:24.355Z,3.45
2019-04-30T18:31:53.956Z,4.20
2019-04-30T18:34:23.318Z,4.50
2019-04-30T18:36:52.713Z,5.30
2019-04-30T18:39:22.027Z,4.83
2019-04-30T18:41:51.341Z,6.17
2019-04-30T18:44:20.657Z,8.35
2019-04-30T18:46:49.968Z,8.70
2019-04-30T18:49:19.497Z,8.57
2019-04-30T18:51:50.558Z,7.70
2019-04-30T18:54:20.931Z,7.58
2019-04-30T18:56:52.043Z,8.13
2019-04-30T18:59:22.196Z,7.58
2019-04-30T19:01:52.710Z,7.12
2019-04-30T19:04:22.895Z,8.83
2019-04-30T19:06:56.430Z,7.90
2019-04-30T19:09:35.412Z,7.60
2019-04-30T19:12:12.868Z,7.42
2019-04-30T19:14:52.592Z,8.37
2019-04-30T19:17:49.469Z,7.85
2019-04-30T19:20:22.834Z,38.25
2019-04-30T19:22:52.881Z,9.13
2019-04-30T19:25:23.236Z,8.38
2019-04-30T19:27:52.891Z,8.60
2019-04-30T19:30:22.649Z,8.53
2019-04-30T19:32:52.610Z,9.77
2019-04-30T19:35:22.590Z,8.30
2019-04-30T19:37:52.297Z,8.80
2019-04-30T19:40:21.667Z,7.97
2019-04-30T19:42:51.925Z,8.63
2019-04-30T19:45:21.757Z,7.90
2019-04-30T19:47:52.261Z,8.73
2019-04-30T19:50:22.612Z,9.40
2019-04-30T19:52:52.676Z,8.90
2019-04-30T19:55:22.822Z,8.65
2019-04-30T19:57:53.088Z,8.98
2019-04-30T20:00:23.279Z,8.90
2019-04-30T20:02:53.259Z,8.43
2019-04-30T20:05:23.128Z,9.03
2019-04-30T20:07:52.780Z,8.70
2019-04-30T20:10:22.877Z,7.87
2019-04-30T20:12:52.917Z,8.17
2019-04-30T20:15:24.702Z,9.50
2019-04-30T20:17:54.377Z,8.40
2019-04-30T20:20:24.025Z,8.90
2019-04-30T20:22:54.102Z,8.35
2019-04-30T20:25:23.935Z,8.43
2019-04-30T20:27:53.722Z,8.08
2019-04-30T20:30:23.504Z,8.40
2019-04-30T20:32:52.884Z,7.87
2019-04-30T20:35:22.184Z,7.92
2019-04-30T20:38:09.547Z,7.97
2019-04-30T20:40:43.717Z,7.70
2019-04-30T20:43:11.690Z,7.60
2019-04-30T20:45:41.002Z,8.35
2019-04-30T20:48:10.444Z,7.77
2019-04-30T20:50:39.753Z,7.53
2019-04-30T20:53:09.093Z,7.80
2019-04-30T20:55:40.492Z,8.25
2019-04-30T20:58:09.633Z,7.67
2019-04-30T21:00:39.094Z,8.60
2019-04-30T21:03:09.686Z,7.42
2019-04-30T21:05:39.208Z,8.30
2019-04-30T21:08:08.770Z,7.50
2019-04-30T21:10:39.691Z,7.92
2019-04-30T21:13:11.112Z,7.83
2019-04-30T21:15:40.257Z,7.80
2019-04-30T21:18:09.613Z,7.90
2019-04-30T21:20:39.024Z,8.10
2019-04-30T21:23:09.424Z,8.10
2019-04-30T21:25:38.897Z,7.95
2019-04-30T21:28:09.700Z,8.40
2019-04-30T21:30:39.285Z,8.03
2019-04-30T21:33:33.372Z,7.75
2019-04-30T21:36:09.691Z,8.40
2019-04-30T21:38:39.068Z,9.13
2019-04-30T21:41:09.997Z,8.90
2019-04-30T21:43:39.436Z,10.03
2019-04-30T21:46:09.563Z,10.70
2019-04-30T21:48:39.108Z,11.08
2019-04-30T21:51:09.472Z,11.68
2019-04-30T21:53:39.600Z,11.80
2019-04-30T21:56:10.569Z,12.03
2019-04-30T21:58:39.990Z,12.60
2019-04-30T22:01:37.684Z,11.85
2019-04-30T22:04:07.041Z,12.85
2019-04-30T22:06:36.333Z,12.65
2019-04-30T22:09:09.639Z,11.80
2019-04-30T22:11:39.439Z,11.85
2019-04-30T22:14:08.952Z,12.07
2019-04-30T22:16:39.797Z,12.23
2019-04-30T22:19:09.913Z,11.77
2019-04-30T22:21:39.726Z,11.93
2019-04-30T22:24:09.101Z,11.83
2019-04-30T22:26:38.442Z,12.35
2019-04-30T22:29:09.210Z,13.05
2019-04-30T22:31:39.608Z,12.73
2019-04-30T22:34:09.093Z,12.58
2019-04-30T22:36:48.819Z,13.10
2019-04-30T22:39:46.237Z,11.55
2019-04-30T22:42:36.130Z,12.10
2019-04-30T22:45:09.653Z,12.18
2019-04-30T22:47:39.272Z,12.13
2019-04-30T22:50:10.140Z,10.55
2019-04-30T22:52:39.758Z,10.43
2019-04-30T22:55:09.336Z,11.38
2019-04-30T22:57:38.674Z,11.28
2019-04-30T23:00:12.404Z,11.10
2019-04-30T23:02:54.315Z,11.50
2019-04-30T23:05:23.706Z,11.60
2019-04-30T23:07:53.041Z,10.27
2019-04-30T23:10:22.515Z,10.50
2019-04-30T23:12:51.819Z,10.47
2019-04-30T23:15:21.301Z,10.55
2019-04-30T23:17:50.607Z,11.20
2019-04-30T23:20:19.881Z,10.65
2019-04-30T23:22:49.261Z,10.93
2019-04-30T23:25:18.530Z,10.80
2019-04-30T23:27:47.820Z,10.98
2019-04-30T23:30:17.408Z,10.55
2019-04-30T23:32:46.683Z,10.78
2019-04-30T23:35:16.013Z,10.50
2019-04-30T23:37:45.322Z,10.60
2019-04-30T23:40:32.577Z,11.22
2019-04-30T23:43:01.894Z,10.80
2019-04-30T23:45:31.195Z,11.30
2019-04-30T23:48:00.636Z,10.88
2019-04-30T23:50:29.919Z,11.47
2019-04-30T23:52:59.222Z,10.45
2019-04-30T23:55:28.537Z,11.00
2019-04-30T23:57:57.808Z,10.18
